sensor_id;sensor_type;location;lat;lon;timestamp;pressure;altitude;pressure_sealevel;temperature;humidity
6694;BME280;3384;42.628;23.380;2023-01-30T00:01:13;94407.78;;;2.32;100.00
6694;BME280;3384;42.628;23.380;2023-01-30T00:07:06;94400.19;;;1.98;100.00
6694;BME280;3384;42.628;23.380;2023-01-30T00:09:34;94406.19;;;1.93;100.00
6694;BME280;3384;42.628;23.380;2023-01-30T00:12:01;94387.16;;;1.91;100.00
6694;BME280;3384;42.628;23.380;2023-01-30T00:14:28;94404.25;;;1.67;100.00
6694;BME280;3384;42.628;23.380;2023-01-30T00:16:54;94403.56;;;1.93;100.00
6694;BME280;3384;42.628;23.380;2023-01-30T00:19:22;94380.06;;;1.75;100.00
6694;BME280;3384;42.628;23.380;2023-01-30T00:21:48;94387.78;;;1.60;100.00
6694;BME280;3384;42.628;23.380;2023-01-30T00:24:15;94404.84;;;1.91;100.00
6694;BME280;3384;42.628;23.380;2023-01-30T00:26:43;94398.25;;;2.10;100.00
6694;BME280;3384;42.628;23.380;2023-01-30T00:29:10;94388.31;;;2.00;100.00
6694;BME280;3384;42.628;23.380;2023-01-30T00:31:37;94395.22;;;2.23;100.00
6694;BME280;3384;42.628;23.380;2023-01-30T00:34:06;94410.56;;;2.04;100.00
6694;BME280;3384;42.628;23.380;2023-01-30T00:40:32;94395.88;;;1.92;100.00
6694;BME280;3384;42.628;23.380;2023-01-30T00:43:00;94389.72;;;1.86;100.00
6694;BME280;3384;42.628;23.380;2023-01-30T00:45:47;94381.81;;;2.08;100.00
6694;BME280;3384;42.628;23.380;2023-01-30T00:51:55;94394.72;;;1.83;100.00
6694;BME280;3384;42.628;23.380;2023-01-30T00:54:24;94374.88;;;1.80;100.00
6694;BME280;3384;42.628;23.380;2023-01-30T00:56:51;94371.91;;;1.77;100.00
6694;BME280;3384;42.628;23.380;2023-01-30T00:59:19;94376.03;;;1.89;100.00
6694;BME280;3384;42.628;23.380;2023-01-30T01:05:28;94371.91;;;1.77;100.00
6694;BME280;3384;42.628;23.380;2023-01-30T01:11:37;94370.81;;;1.94;100.00
6694;BME280;3384;42.628;23.380;2023-01-30T01:17:31;94382.91;;;1.90;100.00
6694;BME280;3384;42.628;23.380;2023-01-30T01:23:20;94359.00;;;1.42;100.00
6694;BME280;3384;42.628;23.380;2023-01-30T01:25:47;94358.16;;;1.58;100.00
6694;BME280;3384;42.628;23.380;2023-01-30T01:28:13;94355.09;;;1.66;100.00
6694;BME280;3384;42.628;23.380;2023-01-30T01:30:45;94367.56;;;1.87;100.00
6694;BME280;3384;42.628;23.380;2023-01-30T01:33:14;94357.47;;;2.06;100.00
6694;BME280;3384;42.628;23.380;2023-01-30T01:35:54;94361.78;;;2.33;100.00
6694;BME280;3384;42.628;23.380;2023-01-30T01:38:21;94366.94;;;2.02;100.00
6694;BME280;3384;42.628;23.380;2023-01-30T01:40:48;94362.91;;;1.94;100.00
6694;BME280;3384;42.628;23.380;2023-01-30T01:43:36;94365.47;;;1.89;100.00
6694;BME280;3384;42.628;23.380;2023-01-30T01:46:07;94351.72;;;1.87;100.00
6694;BME280;3384;42.628;23.380;2023-01-30T01:48:39;94362.44;;;1.81;100.00
6694;BME280;3384;42.628;23.380;2023-01-30T01:51:10;94376.22;;;1.83;100.00
6694;BME280;3384;42.628;23.380;2023-01-30T01:53:44;94362.13;;;1.99;100.00
6694;BME280;3384;42.628;23.380;2023-01-30T01:56:13;94363.59;;;1.68;100.00
6694;BME280;3384;42.628;23.380;2023-01-30T01:58:46;94356.09;;;1.60;100.00
6694;BME280;3384;42.628;23.380;2023-01-30T02:01:13;94358.72;;;1.98;100.00
6694;BME280;3384;42.628;23.380;2023-01-30T02:03:48;94356.75;;;2.10;100.00
6694;BME280;3384;42.628;23.380;2023-01-30T02:06:16;94374.25;;;1.73;100.00
6694;BME280;3384;42.628;23.380;2023-01-30T02:08:45;94367.56;;;1.87;100.00
6694;BME280;3384;42.628;23.380;2023-01-30T02:11:24;94375.41;;;1.82;100.00
6694;BME280;3384;42.628;23.380;2023-01-30T02:14:13;94384.16;;;2.04;100.00
6694;BME280;3384;42.628;23.380;2023-01-30T02:20:18;94362.47;;;2.02;100.00
6694;BME280;3384;42.628;23.380;2023-01-30T02:39:54;94361.84;;;1.95;100.00
6694;BME280;3384;42.628;23.380;2023-01-30T02:42:30;94355.59;;;2.01;100.00
6694;BME280;3384;42.628;23.380;2023-01-30T02:45:41;94346.41;;;2.30;100.00
6694;BME280;3384;42.628;23.380;2023-01-30T02:51:49;94350.09;;;1.86;100.00
6694;BME280;3384;42.628;23.380;2023-01-30T02:54:16;94343.84;;;1.92;100.00
6694;BME280;3384;42.628;23.380;2023-01-30T03:00:16;94346.53;;;1.76;100.00
6694;BME280;3384;42.628;23.380;2023-01-30T03:06:37;94358.28;;;2.06;100.00
6694;BME280;3384;42.628;23.380;2023-01-30T03:09:15;94366.19;;;1.85;100.00
6694;BME280;3384;42.628;23.380;2023-01-30T03:11:47;94346.69;;;1.69;100.00
6694;BME280;3384;42.628;23.380;2023-01-30T03:14:20;94352.56;;;1.38;100.00
6694;BME280;3384;42.628;23.380;2023-01-30T03:16:53;94341.38;;;1.48;100.00
6694;BME280;3384;42.628;23.380;2023-01-30T03:19:22;94334.19;;;1.10;100.00
6694;BME280;3384;42.628;23.380;2023-01-30T03:21:48;94331.69;;;1.91;100.00
6694;BME280;3384;42.628;23.380;2023-01-30T03:24:15;94338.47;;;1.66;100.00
6694;BME280;3384;42.628;23.380;2023-01-30T03:26:46;94330.34;;;1.72;100.00
6694;BME280;3384;42.628;23.380;2023-01-30T03:29:14;94313.34;;;1.63;100.00
6694;BME280;3384;42.628;23.380;2023-01-30T03:31:41;94329.44;;;1.83;100.00
6694;BME280;3384;42.628;23.380;2023-01-30T03:34:09;94324.81;;;1.74;100.00
6694;BME280;3384;42.628;23.380;2023-01-30T03:36:36;94322.34;;;2.05;100.00
6694;BME280;3384;42.628;23.380;2023-01-30T03:39:03;94304.97;;;1.50;100.00
6694;BME280;3384;42.628;23.380;2023-01-30T03:41:30;94316.19;;;1.40;100.00
6694;BME280;3384;42.628;23.380;2023-01-30T03:43:57;94318.13;;;1.12;100.00
6694;BME280;3384;42.628;23.380;2023-01-30T03:46:24;94323.59;;;1.60;100.00
6694;BME280;3384;42.628;23.380;2023-01-30T03:48:51;94307.78;;;1.43;100.00
6694;BME280;3384;42.628;23.380;2023-01-30T03:51:19;94324.97;;;1.46;100.00
6694;BME280;3384;42.628;23.380;2023-01-30T03:53:45;94317.81;;;1.63;100.00
6694;BME280;3384;42.628;23.380;2023-01-30T03:56:12;94311.22;;;1.27;100.00
6694;BME280;3384;42.628;23.380;2023-01-30T03:58:54;94308.94;;;1.52;100.00
6694;BME280;3384;42.628;23.380;2023-01-30T04:04:47;94304.38;;;1.64;100.00
6694;BME280;3384;42.628;23.380;2023-01-30T04:10:37;94290.38;;;1.85;100.00
6694;BME280;3384;42.628;23.380;2023-01-30T04:16:44;94305.22;;;1.70;100.00
6694;BME280;3384;42.628;23.380;2023-01-30T04:22:53;94305.03;;;1.76;100.00
6694;BME280;3384;42.628;23.380;2023-01-30T04:25:20;94303.75;;;2.00;100.00
6694;BME280;3384;42.628;23.380;2023-01-30T04:27:48;94306.06;;;1.54;100.00
6694;BME280;3384;42.628;23.380;2023-01-30T04:30:16;94297.94;;;1.98;100.00
6694;BME280;3384;42.628;23.380;2023-01-30T04:32:43;94308.59;;;1.65;100.00
6694;BME280;3384;42.628;23.380;2023-01-30T04:35:10;94303.59;;;1.85;100.00
6694;BME280;3384;42.628;23.380;2023-01-30T04:37:37;94306.94;;;1.59;100.00
6694;BME280;3384;42.628;23.380;2023-01-30T04:40:05;94295.72;;;1.69;100.00
6694;BME280;3384;42.628;23.380;2023-01-30T04:42:32;94300.13;;;1.63;100.00
6694;BME280;3384;42.628;23.380;2023-01-30T04:45:00;94298.28;;;1.26;100.00
6694;BME280;3384;42.628;23.380;2023-01-30T04:47:26;94290.41;;;1.47;100.00
6694;BME280;3384;42.628;23.380;2023-01-30T04:49:53;94285.88;;;1.64;100.00
6694;BME280;3384;42.628;23.380;2023-01-30T04:52:20;94288.47;;;2.02;100.00
6694;BME280;3384;42.628;23.380;2023-01-30T04:54:47;94286.50;;;1.93;100.00
6694;BME280;3384;42.628;23.380;2023-01-30T04:57:13;94278.94;;;1.20;100.00
6694;BME280;3384;42.628;23.380;2023-01-30T04:59:40;94292.31;;;1.52;100.00
6694;BME280;3384;42.628;23.380;2023-01-30T05:02:08;94277.97;;;1.64;100.00
6694;BME280;3384;42.628;23.380;2023-01-30T05:04:35;94272.00;;;1.74;100.00
6694;BME280;3384;42.628;23.380;2023-01-30T05:07:02;94276.69;;;1.88;100.00
6694;BME280;3384;42.628;23.380;2023-01-30T05:09:53;94280.97;;;1.94;100.00
6694;BME280;3384;42.628;23.380;2023-01-30T05:12:19;94276.78;;;1.77;100.00
6694;BME280;3384;42.628;23.380;2023-01-30T05:14:46;94275.34;;;1.26;100.00
6694;BME280;3384;42.628;23.380;2023-01-30T05:17:14;94282.44;;;1.64;100.00
6694;BME280;3384;42.628;23.380;2023-01-30T05:19:41;94285.84;;;1.43;100.00
6694;BME280;3384;42.628;23.380;2023-01-30T05:22:08;94283.88;;;1.71;100.00
6694;BME280;3384;42.628;23.380;2023-01-30T05:24:35;94286.56;;;1.76;100.00
6694;BME280;3384;42.628;23.380;2023-01-30T05:27:02;94297.66;;;1.19;100.00
6694;BME280;3384;42.628;23.380;2023-01-30T05:29:29;94286.75;;;1.70;100.00
6694;BME280;3384;42.628;23.380;2023-01-30T05:31:55;94288.47;;;1.81;100.00
6694;BME280;3384;42.628;23.380;2023-01-30T05:37:34;94285.19;;;1.74;100.00
6694;BME280;3384;42.628;23.380;2023-01-30T05:40:02;94278.50;;;1.66;100.00
6694;BME280;3384;42.628;23.380;2023-01-30T05:42:29;94301.03;;;1.52;100.00
6694;BME280;3384;42.628;23.380;2023-01-30T05:44:56;94269.94;;;1.76;100.00
6694;BME280;3384;42.628;23.380;2023-01-30T05:47:23;94278.88;;;1.96;100.00
6694;BME280;3384;42.628;23.380;2023-01-30T05:49:57;94280.16;;;1.94;100.00
6694;BME280;3384;42.628;23.380;2023-01-30T05:52:24;94282.41;;;1.80;100.00
6694;BME280;3384;42.628;23.380;2023-01-30T05:54:52;94286.63;;;1.81;100.00
6694;BME280;3384;42.628;23.380;2023-01-30T05:57:29;94285.44;;;1.72;100.00
6694;BME280;3384;42.628;23.380;2023-01-30T05:59:56;94291.47;;;1.68;100.00
6694;BME280;3384;42.628;23.380;2023-01-30T06:02:23;94303.13;;;1.50;100.00
6694;BME280;3384;42.628;23.380;2023-01-30T06:04:50;94289.84;;;1.45;100.00
6694;BME280;3384;42.628;23.380;2023-01-30T06:07:16;94296.88;;;1.78;100.00
6694;BME280;3384;42.628;23.380;2023-01-30T06:09:43;94295.88;;;1.24;100.00
6694;BME280;3384;42.628;23.380;2023-01-30T06:12:11;94289.94;;;1.50;100.00
6694;BME280;3384;42.628;23.380;2023-01-30T06:14:38;94279.03;;;1.25;100.00
6694;BME280;3384;42.628;23.380;2023-01-30T06:17:05;94292.41;;;1.40;100.00
6694;BME280;3384;42.628;23.380;2023-01-30T06:19:32;94282.44;;;1.64;100.00
6694;BME280;3384;42.628;23.380;2023-01-30T06:21:58;94289.63;;;1.68;100.00
6694;BME280;3384;42.628;23.380;2023-01-30T06:24:25;94273.88;;;1.35;100.00
6694;BME280;3384;42.628;23.380;2023-01-30T06:26:52;94272.25;;;1.72;100.00
6694;BME280;3384;42.628;23.380;2023-01-30T06:29:20;94265.97;;;1.57;100.00
6694;BME280;3384;42.628;23.380;2023-01-30T06:31:47;94272.31;;;1.77;100.00
6694;BME280;3384;42.628;23.380;2023-01-30T06:34:13;94275.38;;;1.69;100.00
6694;BME280;3384;42.628;23.380;2023-01-30T06:36:40;94282.38;;;1.59;100.00
6694;BME280;3384;42.628;23.380;2023-01-30T06:39:08;94289.88;;;1.67;100.00
6694;BME280;3384;42.628;23.380;2023-01-30T06:41:35;94274.75;;;1.62;100.00
6694;BME280;3384;42.628;23.380;2023-01-30T06:44:02;94286.19;;;1.46;100.00
6694;BME280;3384;42.628;23.380;2023-01-30T06:46:30;94278.88;;;1.75;100.00
6694;BME280;3384;42.628;23.380;2023-01-30T06:48:56;94294.50;;;1.38;100.00
6694;BME280;3384;42.628;23.380;2023-01-30T06:51:23;94284.66;;;1.50;100.00
6694;BME280;3384;42.628;23.380;2023-01-30T06:53:52;94300.75;;;1.32;100.00
6694;BME280;3384;42.628;23.380;2023-01-30T06:56:18;94291.88;;;1.22;100.00
6694;BME280;3384;42.628;23.380;2023-01-30T06:58:45;94293.47;;;1.39;100.00
6694;BME280;3384;42.628;23.380;2023-01-30T07:01:12;94289.06;;;1.66;100.00
6694;BME280;3384;42.628;23.380;2023-01-30T07:03:40;94297.56;;;1.68;100.00
6694;BME280;3384;42.628;23.380;2023-01-30T07:06:07;94298.53;;;1.62;100.00
6694;BME280;3384;42.628;23.380;2023-01-30T07:08:34;94295.66;;;1.85;100.00
6694;BME280;3384;42.628;23.380;2023-01-30T07:11:03;94308.97;;;1.74;100.00
6694;BME280;3384;42.628;23.380;2023-01-30T07:13:30;94307.25;;;1.63;100.00
6694;BME280;3384;42.628;23.380;2023-01-30T07:15:57;94302.97;;;1.78;100.00
6694;BME280;3384;42.628;23.380;2023-01-30T07:18:24;94297.97;;;1.82;100.00
6694;BME280;3384;42.628;23.380;2023-01-30T07:20:52;94299.22;;;1.74;100.00
6694;BME280;3384;42.628;23.380;2023-01-30T07:23:19;94300.56;;;1.77;100.00
6694;BME280;3384;42.628;23.380;2023-01-30T07:25:45;94316.06;;;1.90;100.00
6694;BME280;3384;42.628;23.380;2023-01-30T07:28:12;94310.97;;;1.45;100.00
6694;BME280;3384;42.628;23.380;2023-01-30T07:30:39;94309.34;;;1.82;100.00
6694;BME280;3384;42.628;23.380;2023-01-30T07:33:06;94310.16;;;1.83;100.00
6694;BME280;3384;42.628;23.380;2023-01-30T07:35:34;94315.50;;;2.09;100.00
6694;BME280;3384;42.628;23.380;2023-01-30T07:38:03;94316.22;;;1.62;100.00
6694;BME280;3384;42.628;23.380;2023-01-30T07:40:30;94318.72;;;1.90;100.00
6694;BME280;3384;42.628;23.380;2023-01-30T07:42:59;94326.69;;;2.16;100.00
6694;BME280;3384;42.628;23.380;2023-01-30T07:45:28;94338.47;;;2.09;100.00
6694;BME280;3384;42.628;23.380;2023-01-30T07:47:56;94328.72;;;1.50;100.00
6694;BME280;3384;42.628;23.380;2023-01-30T07:50:23;94328.91;;;1.81;100.00
6694;BME280;3384;42.628;23.380;2023-01-30T07:52:50;94318.00;;;1.40;100.00
6694;BME280;3384;42.628;23.380;2023-01-30T07:55:18;94323.03;;;1.58;100.00
6694;BME280;3384;42.628;23.380;2023-01-30T07:57:45;94331.03;;;1.63;100.00
6694;BME280;3384;42.628;23.380;2023-01-30T08:00:13;94321.50;;;1.83;100.00
6694;BME280;3384;42.628;23.380;2023-01-30T08:02:40;94298.41;;;1.74;100.00
6694;BME280;3384;42.628;23.380;2023-01-30T08:05:08;94299.44;;;1.51;100.00
6694;BME280;3384;42.628;23.380;2023-01-30T08:07:34;94294.97;;;1.52;100.00
6694;BME280;3384;42.628;23.380;2023-01-30T08:10:01;94292.84;;;1.54;100.00
6694;BME280;3384;42.628;23.380;2023-01-30T08:12:30;94289.66;;;1.90;100.00
6694;BME280;3384;42.628;23.380;2023-01-30T08:14:57;94307.66;;;1.93;100.00
6694;BME280;3384;42.628;23.380;2023-01-30T08:17:23;94296.63;;;1.58;100.00
6694;BME280;3384;42.628;23.380;2023-01-30T08:19:50;94290.34;;;1.64;100.00
6694;BME280;3384;42.628;23.380;2023-01-30T08:22:17;94286.69;;;1.86;100.00
6694;BME280;3384;42.628;23.380;2023-01-30T08:24:44;94290.81;;;1.77;100.00
6694;BME280;3384;42.628;23.380;2023-01-30T08:27:11;94296.28;;;1.92;100.00
6694;BME280;3384;42.628;23.380;2023-01-30T08:29:39;94296.44;;;2.07;100.00
6694;BME280;3384;42.628;23.380;2023-01-30T08:32:06;94280.53;;;1.59;100.00
6694;BME280;3384;42.628;23.380;2023-01-30T08:34:33;94282.00;;;1.93;100.00
6694;BME280;3384;42.628;23.380;2023-01-30T08:37:00;94281.69;;;1.68;100.00
6694;BME280;3384;42.628;23.380;2023-01-30T08:39:27;94275.00;;;1.82;100.00
6694;BME280;3384;42.628;23.380;2023-01-30T08:41:54;94274.25;;;1.65;100.00
6694;BME280;3384;42.628;23.380;2023-01-30T08:44:21;94270.41;;;1.94;100.00
6694;BME280;3384;42.628;23.380;2023-01-30T08:46:49;94266.34;;;2.08;100.00
6694;BME280;3384;42.628;23.380;2023-01-30T08:49:16;94284.53;;;2.05;100.00
6694;BME280;3384;42.628;23.380;2023-01-30T08:51:43;94270.56;;;2.09;100.00
6694;BME280;3384;42.628;23.380;2023-01-30T08:54:11;94259.75;;;2.37;100.00
6694;BME280;3384;42.628;23.380;2023-01-30T08:56:38;94264.94;;;2.27;100.00
6694;BME280;3384;42.628;23.380;2023-01-30T08:59:05;94268.97;;;2.08;100.00
6694;BME280;3384;42.628;23.380;2023-01-30T09:01:32;94259.97;;;2.31;100.00
6694;BME280;3384;42.628;23.380;2023-01-30T09:04:00;94254.44;;;1.84;100.00
6694;BME280;3384;42.628;23.380;2023-01-30T09:06:27;94250.47;;;2.08;100.00
6694;BME280;3384;42.628;23.380;2023-01-30T09:08:53;94257.22;;;2.21;100.00
6694;BME280;3384;42.628;23.380;2023-01-30T09:11:20;94262.34;;;2.59;100.00
6694;BME280;3384;42.628;23.380;2023-01-30T09:13:47;94243.75;;;2.22;100.00
6694;BME280;3384;42.628;23.380;2023-01-30T09:16:14;94245.09;;;2.25;100.00
6694;BME280;3384;42.628;23.380;2023-01-30T09:18:44;94236.31;;;2.77;100.00
6694;BME280;3384;42.628;23.380;2023-01-30T09:21:12;94245.41;;;2.60;100.00
6694;BME280;3384;42.628;23.380;2023-01-30T09:23:43;94232.50;;;2.63;100.00
6694;BME280;3384;42.628;23.380;2023-01-30T09:26:12;94243.94;;;2.16;100.00
6694;BME280;3384;42.628;23.380;2023-01-30T09:28:39;94234.22;;;2.21;100.00
6694;BME280;3384;42.628;23.380;2023-01-30T09:31:06;94249.53;;;2.46;100.00
6694;BME280;3384;42.628;23.380;2023-01-30T09:33:33;94253.56;;;2.27;100.00
6694;BME280;3384;42.628;23.380;2023-01-30T09:36:00;94248.03;;;2.28;100.00
6694;BME280;3384;42.628;23.380;2023-01-30T09:38:28;94253.41;;;2.38;100.00
6694;BME280;3384;42.628;23.380;2023-01-30T09:41:12;94242.41;;;2.46;100.00
6694;BME280;3384;42.628;23.380;2023-01-30T09:44:02;94237.81;;;2.63;100.00
6694;BME280;3384;42.628;23.380;2023-01-30T09:46:38;94243.91;;;2.37;100.00
6694;BME280;3384;42.628;23.380;2023-01-30T09:49:14;94223.78;;;2.68;100.00
6694;BME280;3384;42.628;23.380;2023-01-30T09:51:54;94218.00;;;2.71;100.00
6694;BME280;3384;42.628;23.380;2023-01-30T09:54:28;94213.34;;;2.83;100.00
6694;BME280;3384;42.628;23.380;2023-01-30T09:57:00;94217.09;;;2.92;100.00
6694;BME280;3384;42.628;23.380;2023-01-30T09:59:43;94211.81;;;2.92;100.00
6694;BME280;3384;42.628;23.380;2023-01-30T10:02:23;94225.16;;;2.44;100.00
6694;BME280;3384;42.628;23.380;2023-01-30T10:04:54;94208.47;;;1.85;100.00
6694;BME280;3384;42.628;23.380;2023-01-30T10:07:26;94205.44;;;1.98;100.00
6694;BME280;3384;42.628;23.380;2023-01-30T10:10:04;94202.72;;;1.45;100.00
6694;BME280;3384;42.628;23.380;2023-01-30T10:12:43;94196.06;;;2.39;100.00
6694;BME280;3384;42.628;23.380;2023-01-30T10:15:38;94189.47;;;2.78;100.00
6694;BME280;3384;42.628;23.380;2023-01-30T10:18:30;94182.16;;;2.53;100.00
6694;BME280;3384;42.628;23.380;2023-01-30T10:21:08;94180.91;;;2.29;100.00
6694;BME280;3384;42.628;23.380;2023-01-30T10:23:59;94174.94;;;2.12;100.00
6694;BME280;3384;42.628;23.380;2023-01-30T10:26:30;94169.44;;;1.92;100.00
6694;BME280;3384;42.628;23.380;2023-01-30T10:28:59;94161.06;;;2.00;100.00
6694;BME280;3384;42.628;23.380;2023-01-30T10:31:30;94151.75;;;2.24;100.00
6694;BME280;3384;42.628;23.380;2023-01-30T10:34:00;94136.44;;;1.95;100.00
6694;BME280;3384;42.628;23.380;2023-01-30T10:36:35;94171.72;;;2.10;100.00
6694;BME280;3384;42.628;23.380;2023-01-30T10:39:19;94137.38;;;2.10;100.00
6694;BME280;3384;42.628;23.380;2023-01-30T10:41:53;94142.16;;;2.13;100.00
6694;BME280;3384;42.628;23.380;2023-01-30T10:44:22;94122.66;;;2.19;100.00
6694;BME280;3384;42.628;23.380;2023-01-30T10:47:02;94122.09;;;2.49;100.00
6694;BME280;3384;42.628;23.380;2023-01-30T10:49:38;94122.13;;;1.91;100.00
6694;BME280;3384;42.628;23.380;2023-01-30T10:52:17;94120.44;;;2.11;100.00
6694;BME280;3384;42.628;23.380;2023-01-30T10:54:59;94108.84;;;2.12;100.00
6694;BME280;3384;42.628;23.380;2023-01-30T10:57:43;94110.53;;;2.28;100.00
6694;BME280;3384;42.628;23.380;2023-01-30T11:00:18;94101.34;;;1.99;100.00
6694;BME280;3384;42.628;23.380;2023-01-30T11:02:57;94093.72;;;2.03;100.00
6694;BME280;3384;42.628;23.380;2023-01-30T11:05:26;94092.84;;;1.97;100.00
6694;BME280;3384;42.628;23.380;2023-01-30T11:07:55;94089.06;;;2.20;100.00
6694;BME280;3384;42.628;23.380;2023-01-30T11:10:23;94070.50;;;2.46;100.00
6694;BME280;3384;42.628;23.380;2023-01-30T11:12:55;94079.22;;;1.79;100.00
6694;BME280;3384;42.628;23.380;2023-01-30T11:15:24;94066.41;;;1.97;100.00
6694;BME280;3384;42.628;23.380;2023-01-30T11:18:12;94067.88;;;2.51;100.00
6694;BME280;3384;42.628;23.380;2023-01-30T11:20:40;94069.06;;;2.34;100.00
6694;BME280;3384;42.628;23.380;2023-01-30T11:23:22;94056.53;;;2.56;100.00
6694;BME280;3384;42.628;23.380;2023-01-30T11:25:53;94043.44;;;1.98;100.00
6694;BME280;3384;42.628;23.380;2023-01-30T11:28:22;94038.03;;;2.56;100.00
6694;BME280;3384;42.628;23.380;2023-01-30T11:30:53;94041.59;;;2.35;100.00
6694;BME280;3384;42.628;23.380;2023-01-30T11:33:23;94050.75;;;1.86;100.00
6694;BME280;3384;42.628;23.380;2023-01-30T11:35:58;94031.28;;;2.33;100.00
6694;BME280;3384;42.628;23.380;2023-01-30T11:38:27;94022.91;;;2.46;100.00
6694;BME280;3384;42.628;23.380;2023-01-30T11:41:03;94027.38;;;2.46;100.00
6694;BME280;3384;42.628;23.380;2023-01-30T11:43:34;94021.75;;;2.89;100.00
6694;BME280;3384;42.628;23.380;2023-01-30T11:46:01;94016.03;;;2.50;100.00
6694;BME280;3384;42.628;23.380;2023-01-30T11:48:31;94017.13;;;2.59;100.00
6694;BME280;3384;42.628;23.380;2023-01-30T11:51:03;94012.34;;;2.51;100.00
6694;BME280;3384;42.628;23.380;2023-01-30T11:53:34;93998.09;;;2.62;100.00
6694;BME280;3384;42.628;23.380;2023-01-30T11:56:06;94002.13;;;2.18;100.00
6694;BME280;3384;42.628;23.380;2023-01-30T11:58:38;93984.06;;;2.57;100.00
6694;BME280;3384;42.628;23.380;2023-01-30T12:01:07;93984.16;;;2.82;100.00
6694;BME280;3384;42.628;23.380;2023-01-30T12:03:42;93987.63;;;2.87;100.00
6694;BME280;3384;42.628;23.380;2023-01-30T12:06:10;93973.34;;;2.88;100.00
6694;BME280;3384;42.628;23.380;2023-01-30T12:08:39;93971.22;;;2.90;100.00
6694;BME280;3384;42.628;23.380;2023-01-30T12:11:24;93958.44;;;2.62;100.00
6694;BME280;3384;42.628;23.380;2023-01-30T12:13:54;93950.44;;;2.47;100.00
6694;BME280;3384;42.628;23.380;2023-01-30T12:16:25;93951.72;;;2.35;100.00
6694;BME280;3384;42.628;23.380;2023-01-30T12:19:03;93944.34;;;2.47;100.00
6694;BME280;3384;42.628;23.380;2023-01-30T12:21:36;93945.31;;;2.97;100.00
6694;BME280;3384;42.628;23.380;2023-01-30T12:24:12;93944.00;;;3.00;100.00
6694;BME280;3384;42.628;23.380;2023-01-30T12:26:44;93942.13;;;2.90;100.00
6694;BME280;3384;42.628;23.380;2023-01-30T12:29:22;93940.53;;;2.94;100.00
6694;BME280;3384;42.628;23.380;2023-01-30T12:31:56;93936.59;;;3.02;100.00
6694;BME280;3384;42.628;23.380;2023-01-30T12:34:59;93921.91;;;2.59;100.00
6694;BME280;3384;42.628;23.380;2023-01-30T12:37:40;93921.47;;;2.77;100.00
6694;BME280;3384;42.628;23.380;2023-01-30T12:40:19;93919.41;;;3.15;100.00
6694;BME280;3384;42.628;23.380;2023-01-30T12:46:03;93919.69;;;3.28;100.00
6694;BME280;3384;42.628;23.380;2023-01-30T12:48:53;93909.06;;;2.93;100.00
6694;BME280;3384;42.628;23.380;2023-01-30T12:51:42;93902.97;;;2.92;100.00
6694;BME280;3384;42.628;23.380;2023-01-30T12:54:26;93900.38;;;3.23;100.00
6694;BME280;3384;42.628;23.380;2023-01-30T12:57:06;93885.50;;;2.97;100.00
6694;BME280;3384;42.628;23.380;2023-01-30T12:59:43;93900.53;;;2.66;99.26
6694;BME280;3384;42.628;23.380;2023-01-30T13:02:38;93898.16;;;2.74;98.75
6694;BME280;3384;42.628;23.380;2023-01-30T13:05:26;93902.22;;;3.22;93.41
6694;BME280;3384;42.628;23.380;2023-01-30T13:08:10;93900.88;;;3.10;92.17
6694;BME280;3384;42.628;23.380;2023-01-30T13:10:47;93882.84;;;2.81;96.11
6694;BME280;3384;42.628;23.380;2023-01-30T13:13:20;93904.81;;;2.92;92.20
6694;BME280;3384;42.628;23.380;2023-01-30T13:15:54;93892.03;;;2.64;95.66
6694;BME280;3384;42.628;23.380;2023-01-30T13:18:25;93872.50;;;2.80;94.70
6694;BME280;3384;42.628;23.380;2023-01-30T13:21:33;93889.22;;;2.96;93.54
6694;BME280;3384;42.628;23.380;2023-01-30T13:24:11;93869.09;;;2.89;91.70
6694;BME280;3384;42.628;23.380;2023-01-30T13:27:05;93870.50;;;2.30;98.86
6694;BME280;3384;42.628;23.380;2023-01-30T13:33:11;93878.03;;;2.68;100.00
6694;BME280;3384;42.628;23.380;2023-01-30T13:39:22;93856.84;;;2.53;100.00
6694;BME280;3384;42.628;23.380;2023-01-30T13:45:48;93862.63;;;2.45;97.51
6694;BME280;3384;42.628;23.380;2023-01-30T13:48:27;93851.63;;;2.88;95.51
6694;BME280;3384;42.628;23.380;2023-01-30T13:51:08;93844.44;;;2.64;96.06
6694;BME280;3384;42.628;23.380;2023-01-30T13:53:41;93843.09;;;2.46;100.00
6694;BME280;3384;42.628;23.380;2023-01-30T13:56:19;93846.31;;;2.78;100.00
6694;BME280;3384;42.628;23.380;2023-01-30T13:58:54;93848.47;;;3.07;98.85
6694;BME280;3384;42.628;23.380;2023-01-30T14:04:45;93854.03;;;3.00;93.71
6694;BME280;3384;42.628;23.380;2023-01-30T14:07:15;93854.25;;;2.93;99.24
6694;BME280;3384;42.628;23.380;2023-01-30T14:09:47;93846.56;;;2.77;100.00
6694;BME280;3384;42.628;23.380;2023-01-30T14:12:19;93851.59;;;2.78;100.00
6694;BME280;3384;42.628;23.380;2023-01-30T14:15:00;93847.63;;;2.66;100.00
6694;BME280;3384;42.628;23.380;2023-01-30T14:17:28;93851.09;;;3.12;100.00
6694;BME280;3384;42.628;23.380;2023-01-30T14:19:58;93849.69;;;2.54;100.00
6694;BME280;3384;42.628;23.380;2023-01-30T14:22:32;93849.28;;;3.07;100.00
6694;BME280;3384;42.628;23.380;2023-01-30T14:25:29;93849.00;;;2.99;100.00
6694;BME280;3384;42.628;23.380;2023-01-30T14:34:43;93854.53;;;2.92;100.00
6694;BME280;3384;42.628;23.380;2023-01-30T14:40:36;93855.00;;;2.59;100.00
6694;BME280;3384;42.628;23.380;2023-01-30T14:49:31;93837.50;;;2.43;100.00
6694;BME280;3384;42.628;23.380;2023-01-30T14:52:27;93834.06;;;2.42;100.00
6694;BME280;3384;42.628;23.380;2023-01-30T14:54:56;93826.97;;;2.53;100.00
6694;BME280;3384;42.628;23.380;2023-01-30T14:57:24;93821.59;;;2.33;100.00
6694;BME280;3384;42.628;23.380;2023-01-30T14:59:59;93829.63;;;2.68;100.00
6694;BME280;3384;42.628;23.380;2023-01-30T15:02:30;93834.88;;;2.53;100.00
6694;BME280;3384;42.628;23.380;2023-01-30T15:05:04;93825.56;;;2.30;100.00
6694;BME280;3384;42.628;23.380;2023-01-30T15:07:37;93834.44;;;2.04;100.00
6694;BME280;3384;42.628;23.380;2023-01-30T15:10:12;93822.38;;;2.28;100.00
6694;BME280;3384;42.628;23.380;2023-01-30T15:13:18;93827.72;;;2.43;100.00
6694;BME280;3384;42.628;23.380;2023-01-30T15:16:00;93829.22;;;2.14;100.00
6694;BME280;3384;42.628;23.380;2023-01-30T15:18:46;93823.44;;;2.27;100.00
6694;BME280;3384;42.628;23.380;2023-01-30T15:21:47;93836.22;;;2.55;100.00
6694;BME280;3384;42.628;23.380;2023-01-30T15:27:14;93836.25;;;2.70;100.00